Flight Track Log - Related Links

Times and Time Zones

All times are in EDT time to prevent confusion due to time zone crossing. See the UAL1459 flight status page for this flight to view local times or setup timezone preferences in your user account.

Time Position Orientation Groundspeed Altitude Reporting Facility
EDT Latitude Longitude Course Direction KTS MPH feet Rate Location/Type
Sun 08:12:00 AM 11.0710 -61.6375 328° Northwest  Level FlightAware Approximate
Sun 08:13:00 AM 11.1661 -61.6976 328° Northwest  Level FlightAware Approximate
Sun 08:14:00 AM 11.2611 -61.7578 328° Northwest  Level FlightAware Approximate
Sun 08:15:00 AM 11.3562 -61.8181 328° Northwest  Level FlightAware Approximate
Sun 08:16:00 AM 11.4513 -61.8783 328° Northwest  Level FlightAware Approximate
Sun 08:17:00 AM 11.5463 -61.9386 328° Northwest  Level FlightAware Approximate
Sun 08:18:00 AM 11.6413 -61.9990 328° Northwest  Level FlightAware Approximate
Sun 08:19:00 AM 11.7363 -62.0594 328° Northwest  Level FlightAware Approximate
Sun 08:20:00 AM 11.8313 -62.1199 328° Northwest  Level FlightAware Approximate
Sun 08:21:00 AM 10.6890 -61.3962 328° Northwest  Level FlightAware Approximate
Sun 08:22:00 AM 10.7827 -61.4552 328° Northwest  Level FlightAware Approximate
Sun 08:23:00 AM 10.8764 -61.5142 328° Northwest  Level FlightAware Approximate
Sun 08:24:00 AM 10.9700 -61.5732 328° Northwest  Level FlightAware Approximate
Sun 08:25:00 AM 11.0636 -61.6323 328° Northwest  Level FlightAware Approximate
Sun 08:26:00 AM 11.1573 -61.6914 328° Northwest  Level FlightAware Approximate
Sun 08:27:00 AM 11.2509 -61.7506 328° Northwest  Level FlightAware Approximate
Sun 08:28:00 AM 11.3445 -61.8098 328° Northwest  Level FlightAware Approximate
Sun 08:29:00 AM 11.4381 -61.8690 328° Northwest  Level FlightAware Approximate
Sun 08:30:00 AM 11.5316 -61.9283 328° Northwest  Level FlightAware Approximate
Sun 08:31:00 AM 11.6252 -61.9876 328° Northwest  Level FlightAware Approximate
Sun 08:32:00 AM 11.7187 -62.0470 328° Northwest  Level FlightAware Approximate
Sun 08:33:00 AM 11.8123 -62.1064 328° Northwest  Level FlightAware Approximate
Sun 08:34:00 AM 11.9058 -62.1658 328° Northwest  Level FlightAware Approximate
Sun 08:35:00 AM 11.9993 -62.2253 328° Northwest  Level FlightAware Approximate
Sun 08:36:00 AM 12.0928 -62.2848 328° Northwest  Level FlightAware Approximate
Sun 08:37:00 AM 12.1567 -62.3766 328° Northwest  Level Estimated
Sun 08:38:00 AM 12.2513 -62.4342 329° Northwest  Level FlightAware Approximate
Sun 08:39:00 AM 12.3459 -62.4920 329° Northwest  Level FlightAware Approximate
Sun 08:40:00 AM 12.4405 -62.5498 329° Northwest  Level FlightAware Approximate
Sun 08:41:00 AM 12.5351 -62.6076 329° Northwest  Level FlightAware Approximate
Sun 08:42:00 AM 12.6296 -62.6654 329° Northwest  Level FlightAware Approximate
Sun 08:43:00 AM 12.7242 -62.7233 329° Northwest  Level FlightAware Approximate
Sun 08:44:00 AM 12.8187 -62.7812 329° Northwest  Level FlightAware Approximate
Sun 08:45:00 AM 12.9159 -62.8409 329° Northwest  Level FlightAware Approximate
Sun 08:46:00 AM 13.0131 -62.9006 329° Northwest  Level FlightAware Approximate
Sun 08:47:00 AM 13.1103 -62.9603 329° Northwest  Level FlightAware Approximate
Sun 08:48:00 AM 13.2074 -63.0200 329° Northwest  Level FlightAware Approximate
Sun 08:49:00 AM 13.3046 -63.0798 329° Northwest  Level FlightAware Approximate
Sun 08:50:00 AM 13.4017 -63.1397 329° Northwest  Level FlightAware Approximate
Sun 08:51:00 AM 13.4988 -63.1996 329° Northwest  Level FlightAware Approximate
Sun 08:52:00 AM 13.5959 -63.2596 329° Northwest  Level FlightAware Approximate
Sun 08:53:00 AM 13.6930 -63.3196 329° Northwest  Level FlightAware Approximate
Sun 08:54:00 AM 13.7900 -63.3796 329° Northwest  Level FlightAware Approximate
Sun 08:54:22 AM 15.1167 -64.2333 329° Northwest 440 506 34,000  Level San Juan Center
Sun 08:55:00 AM 13.8871 -63.4397 329° Northwest  Level FlightAware Approximate
Sun 08:55:23 AM 15.2167 -64.3167 321° Northwest 440 506 34,000  Level San Juan Center
Sun 08:56:00 AM 13.9841 -63.4999 329° Northwest  Level FlightAware Approximate
Sun 08:56:23 AM 15.3000 -64.4000 316° Northwest 440 506 34,000  Level San Juan Center
Sun 08:57:00 AM 14.0812 -63.5601 329° Northwest  Level FlightAware Approximate
Sun 08:57:23 AM 15.4000 -64.4833 321° Northwest 440 506 34,000  Level San Juan Center
Sun 08:58:00 AM 14.1782 -63.6204 329° Northwest  Level FlightAware Approximate
Sun 08:58:24 AM 15.5000 -64.5500 327° Northwest 430 495 34,000  Level San Juan Center
Sun 08:59:00 AM 14.2752 -63.6807 329° Northwest  Level FlightAware Approximate
Sun 08:59:24 AM 15.5833 -64.6333 316° Northwest 430 495 34,000  Level San Juan Center
Sun 09:00:24 AM 15.6833 -64.7167 321° Northwest 440 506 34,000  Level San Juan Center
Sun 09:01:25 AM 15.7833 -64.7833 327° Northwest 450 518 34,000  Level San Juan Center
Sun 09:02:25 AM 15.8667 -64.8667 316° Northwest 430 495 34,000  Level San Juan Center
Sun 09:04:25 AM 16.0667 -65.0500 319° Northwest 440 506 34,000  Level San Juan Center
Sun 09:05:26 AM 16.1667 -65.1167 327° Northwest 440 506 34,000  Level San Juan Center
Sun 09:06:26 AM 16.2500 -65.2000 316° Northwest 440 506 34,000  Level San Juan Center
Sun 09:07:26 AM 16.3500 -65.2667 327° Northwest 430 495 34,000  Level San Juan Center
Sun 09:08:27 AM 16.4500 -65.3500 321° Northwest 430 495 34,000  Level San Juan Center
Sun 09:09:27 AM 16.5333 -65.4333 316° Northwest 430 495 34,000  Level San Juan Center
Sun 09:10:28 AM 16.6333 -65.5000 327° Northwest 430 495 34,000  Level San Juan Center
Sun 09:11:28 AM 16.7167 -65.5833 316° Northwest 430 495 34,000  Level San Juan Center
Sun 09:12:28 AM 16.8167 -65.6667 321° Northwest 430 495 34,000  Level San Juan Center
Sun 09:13:29 AM 16.9000 -65.7333 323° Northwest 420 483 34,000  Level San Juan Center
Sun 09:14:29 AM 17.0000 -65.8167 321° Northwest 430 495 34,000  Level San Juan Center
Sun 09:15:29 AM 17.0833 -65.9000 316° Northwest 430 495 34,000  Level San Juan Center
Sun 09:16:29 AM 17.1833 -65.9833 321° Northwest 430 495 34,000  Level San Juan Center
Sun 09:17:30 AM 17.2833 -66.0500 328° Northwest 430 495 34,000  Level San Juan Center
Sun 09:18:30 AM 17.3667 -66.1333 316° Northwest 420 483 34,000  Level San Juan Center
Sun 09:19:30 AM 17.4667 -66.2167 322° Northwest 430 495 34,000  Level San Juan Center
Sun 09:20:30 AM 17.5500 -66.3000 316° Northwest 430 495 34,000  Level San Juan Center
Sun 09:21:31 AM 17.6500 -66.3667 328° Northwest 420 483 34,000  Level San Juan Center
Sun 09:22:31 AM 17.7333 -66.4500 316° Northwest 430 495 34,000  Level San Juan Center
Sun 09:23:31 AM 17.8333 -66.5333 322° Northwest 430 495 34,000  Level San Juan Center
Sun 09:24:32 AM 17.9167 -66.6167 316° Northwest 430 495 34,000  Level San Juan Center
Sun 09:25:32 AM 18.0167 -66.6833 328° Northwest 430 495 34,000  Level San Juan Center
Sun 09:26:32 AM 18.1167 -66.7833 316° Northwest 440 506 34,000  Level San Juan Center
Sun 09:27:33 AM 18.2000 -66.8500 323° Northwest 420 483 34,000  Level San Juan Center
Sun 09:28:33 AM 18.2833 -66.9333 316° Northwest 420 483 34,000  Level San Juan Center
Sun 09:29:33 AM 18.3833 -67.0000 328° Northwest 420 483 34,000  Level San Juan Center
Sun 09:30:34 AM 18.4667 -67.0833 317° Northwest 420 483 34,000  Level San Juan Center
Sun 09:31:34 AM 18.5500 -67.1833 311° West 420 483 34,000  Level San Juan Center
Sun 09:32:34 AM 18.6167 -67.2667 310° West 410 472 34,000  Level San Juan Center
Sun 09:33:35 AM 18.6833 -67.3667 305° West 410 472 34,000  Level San Juan Center
Sun 09:34:35 AM 18.7667 -67.4667 311° West 400 460 34,000  Level San Juan Center
Sun 09:35:35 AM 18.8333 -67.5500 310° West 400 460 34,000  Level San Juan Center
Sun 09:36:36 AM 18.9167 -67.6667 307° West 400 460 34,000  Level San Juan Center
Sun 09:37:36 AM 18.9833 -67.7667 305° West 410 472 34,000  Level San Juan Center
Sun 09:38:36 AM 19.0500 -67.8500 310° West 400 460 34,000  Level San Juan Center
Sun 09:39:36 AM 19.1167 -67.9500 305° West 400 460 34,000  Level San Juan Center
Sun 09:40:36 AM 19.2000 -68.0333 317° Northwest 400 460 34,000  Level San Juan Center
Sun 09:41:37 AM 19.2667 -68.1333 305° West 400 460 34,000  Level San Juan Center
Sun 09:42:37 AM 19.3333 -68.2167 310° West 390 449 34,000  Level San Juan Center
Sun 09:43:37 AM 19.4000 -68.3167 305° West 400 460 34,000  Level San Juan Center
Sun 09:44:38 AM 19.4667 -68.4167 305° West 400 460 34,000  Level San Juan Center
Sun 09:45:38 AM 19.5333 -68.5000 310° West 400 460 34,000  Level San Juan Center
Sun 09:47:17 AM 19.6592 -68.6564 311° West 462 532 34,000  Level Miami Center
Sun 09:48:17 AM 19.7142 -68.7564 300° West 416 479 34,000  Level Miami Center
Sun 09:49:17 AM 19.7711 -68.8542 302° West 395 455 34,000  Level Miami Center
Sun 09:50:17 AM 19.8242 -68.9544 299° West 390 449 34,000  Level Miami Center
Sun 09:51:17 AM 19.8731 -69.0594 296° West 390 449 34,000  Level Miami Center
Sun 09:52:17 AM 19.9219 -69.1644 296° West 395 455 34,000  Level Miami Center
Sun 09:53:17 AM 19.9869 -69.2578 307° West 395 455 34,000  Level Miami Center
Sun 09:54:17 AM 20.0539 -69.3489 308° West 395 455 34,000  Level Miami Center
Sun 09:55:17 AM 20.1106 -69.4494 301° West 395 455 34,000  Level Miami Center
Sun 09:56:17 AM 20.1675 -69.5500 301° West 395 455 34,000  Level Miami Center
Sun 09:57:17 AM 20.2283 -69.6483 303° West 400 460 34,000  Level Miami Center
Sun 09:58:17 AM 20.2828 -69.7492 300° West 400 460 34,000  Level Miami Center
Sun 09:59:17 AM 20.3375 -69.8522 300° West 400 460 34,000  Level Miami Center
Sun 10:00:17 AM 20.3961 -69.9511 302° West 395 455 34,000  Level Miami Center
Sun 10:01:17 AM 20.4506 -70.0522 300° West 395 455 34,000  Level Miami Center
Sun 10:02:17 AM 20.5069 -70.1489 302° West 390 449 34,000  Level Miami Center
Sun 10:03:17 AM 20.5633 -70.2500 301° West 390 449 34,000  Level Miami Center
Sun 10:04:17 AM 20.6217 -70.3514 302° West 390 449 34,000  Level Miami Center
Sun 10:05:17 AM 20.6781 -70.4550 300° West 390 449 34,000  Level Miami Center
Sun 10:06:17 AM 20.7367 -70.5586 301° West 395 455 34,000  Level Miami Center
Sun 10:07:17 AM 20.7931 -70.6622 300° West 400 460 34,000  Level Miami Center
Sun 10:08:17 AM 20.8511 -70.7661 301° West 400 460 34,000  Level Miami Center
Sun 10:09:18 AM 20.9094 -70.8678 302° West 407 468 34,000  Level Miami Center
Sun 10:10:17 AM 20.9678 -70.9739 301° West 407 468 34,000  Level Miami Center
Sun 10:11:17 AM 21.0239 -71.0781 300° West 407 468 34,000  Level Miami Center
Sun 10:12:17 AM 21.0819 -71.1822 301° West 407 468 34,000  Level Miami Center
Sun 10:13:17 AM 21.1444 -71.2997 300° West 407 468 34,000  Level Miami Center
Sun 10:14:17 AM 21.2025 -71.4039 301° West 412 474 34,000  Level Miami Center
Sun 10:15:17 AM 21.2625 -71.5128 301° West 412 474 34,000  Level Miami Center
Sun 10:16:17 AM 21.3225 -71.6172 302° West 412 474 34,000  Level Miami Center
Sun 10:17:17 AM 21.3825 -71.7242 301° West 412 474 34,000  Level Miami Center
Sun 10:18:17 AM 21.4403 -71.8289 301° West 412 474 34,000  Level Miami Center
Sun 10:19:17 AM 21.5000 -71.9381 300° West 412 474 34,000  Level Miami Center
Sun 10:20:17 AM 21.5578 -72.0453 300° West 412 474 34,000  Level Miami Center
Sun 10:21:17 AM 21.6194 -72.1500 302° West 412 474 34,000  Level Miami Center
Sun 10:22:17 AM 21.6850 -72.2528 304° West 417 480 34,000  Level Miami Center
Sun 10:23:17 AM 21.7364 -72.3625 297° West 417 480 34,000  Level Miami Center
Sun 10:24:18 AM 21.7917 -72.4725 298° West 417 480 34,000  Level Miami Center
Sun 10:25:17 AM 21.8492 -72.5825 299° West 417 480 34,000  Level Miami Center
Sun 10:26:17 AM 21.9083 -72.6878 301° West 412 474 34,000  Level Miami Center
Sun 10:27:17 AM 21.9656 -72.7958 300° West 412 474 34,000  Level Miami Center
Sun 10:28:17 AM 22.0208 -72.9058 298° West 412 474 34,000  Level Miami Center
Sun 10:29:17 AM 22.0861 -73.0114 304° West 412 474 34,000  Level Miami Center
Sun 10:30:17 AM 22.1431 -73.1242 299° West 417 480 34,000  Level Miami Center
Sun 10:31:18 AM 22.2000 -73.2347 299° West 412 474 34,000  Level Miami Center
Sun 10:32:18 AM 22.2611 -73.3428 301° West 417 480 34,000  Level Miami Center
Sun 10:33:18 AM 22.3092 -73.4403 298° West 417 480 34,000  Level Miami Center
Sun 10:34:18 AM 22.3661 -73.5533 299° West 417 480 34,000  Level Miami Center
Sun 10:35:17 AM 22.4289 -73.6594 303° West 417 480 34,000  Level Miami Center
Sun 10:36:17 AM 22.4833 -73.7706 298° West 417 480 34,000  Level Miami Center
Sun 10:37:18 AM 22.5419 -73.8817 300° West 417 480 34,000  Level Miami Center
Sun 10:38:17 AM 22.6006 -73.9906 300° West 417 480 34,000  Level Miami Center
Sun 10:39:17 AM 22.6569 -74.1017 299° West 417 480 34,000  Level Miami Center
Sun 10:40:17 AM 22.7175 -74.2131 301° West 423 487 34,000  Level Miami Center
Sun 10:41:17 AM 22.7778 -74.3244 300° West 423 487 34,000  Level Miami Center
Sun 10:42:18 AM 22.8361 -74.4358 300° West 423 487 34,000  Level Miami Center
Sun 10:43:17 AM 22.8964 -74.5567 298° West 423 487 34,000  Level Miami Center
Sun 10:44:18 AM 22.9567 -74.6706 300° West 423 487 34,000  Level Miami Center
Sun 10:45:17 AM 23.0167 -74.7800 301° West 429 494 34,000  Level Miami Center
Sun 10:46:18 AM 23.0725 -74.8944 298° West 429 494 34,000  Level Miami Center
Sun 10:47:18 AM 23.1325 -75.0064 300° West 429 494 34,000  Level Miami Center
Sun 10:48:18 AM 23.1861 -75.1231 297° West 429 494 34,000  Level Miami Center
Sun 10:49:17 AM 23.2333 -75.2400 294° West 429 494 34,000  Level Miami Center
Sun 10:50:18 AM 23.2786 -75.3617 292° West 424 488 34,000  Level Miami Center
Sun 10:51:18 AM 23.3172 -75.4833 289° West 424 488 34,000  Level Miami Center
Sun 10:52:18 AM 23.3517 -75.6028 287° West 430 495 34,000  Level Miami Center
Sun 10:53:18 AM 23.3842 -75.7317 285° West 425 489 34,000  Level Miami Center
Sun 10:54:18 AM 23.4164 -75.8581 286° West 433 498 34,000  Level Miami Center
Sun 10:55:18 AM 23.4319 -75.9803 278° West 451 519 34,000  Level Miami Center
Sun 10:56:18 AM 23.4492 -76.1069 278° West 445 512 34,000  Level Miami Center
Sun 10:57:18 AM 23.4603 -76.2339 275° West 434 499 34,000  Level Miami Center
Sun 10:58:18 AM 23.4878 -76.3558 284° West 428 493 34,000  Level Miami Center
Sun 10:59:18 AM 23.5322 -76.4736 292° West 423 487 34,000  Level Miami Center
Sun 11:00:18 AM 23.5931 -76.5867 300° West 423 487 34,000  Level Miami Center
Sun 11:01:17 AM 23.6517 -76.6956 300° West 423 487 34,000  Level Miami Center
Sun 11:02:18 AM 23.7103 -76.8044 300° West 423 487 34,000  Level Miami Center
Sun 11:03:18 AM 23.7689 -76.9156 300° West 423 487 34,000  Level Miami Center
Sun 11:04:18 AM 23.8294 -77.0269 301° West 423 487 34,000  Level Miami Center
Sun 11:05:18 AM 23.8919 -77.1453 300° West 423 487 34,000  Level Miami Center
Sun 11:06:18 AM 23.9481 -77.2592 298° West 423 487 34,000  Level Miami Center
Sun 11:07:18 AM 24.0083 -77.3661 302° West 423 487 34,000  Level Miami Center
Sun 11:08:18 AM 24.0706 -77.4781 301° West 423 487 34,000  Level Miami Center
Sun 11:09:18 AM 24.1306 -77.5944 299° West 423 487 34,000  Level Miami Center
Sun 11:10:18 AM 24.1886 -77.7039 300° West 434 499 34,000  Level Miami Center
Sun 11:11:18 AM 24.2506 -77.8206 300° West 434 499 34,000  Level Miami Center
Sun 11:12:18 AM 24.3106 -77.9350 300° West 434 499 34,000  Level Miami Center
Sun 11:13:18 AM 24.3681 -78.0475 299° West 434 499 34,000  Level Miami Center
Sun 11:14:18 AM 24.4319 -78.1644 301° West 434 499 34,000  Level Miami Center
Sun 11:15:18 AM 24.4914 -78.2792 300° West 434 499 34,000  Level Miami Center
Sun 11:16:18 AM 24.5531 -78.3919 301° West 434 499 34,000  Level Miami Center
Sun 11:17:18 AM 24.6103 -78.5047 299° West 434 499 34,000  Level Miami Center
Sun 11:18:18 AM 24.6697 -78.6175 300° West 434 499 34,000  Level Miami Center
Sun 11:19:18 AM 24.7289 -78.7325 300° West 434 499 34,000  Level Miami Center
Sun 11:20:18 AM 24.7858 -78.8456 299° West 434 499 34,000  Level Miami Center
Sun 11:21:18 AM 24.8492 -78.9567 302° West 429 494 34,000  Level Miami Center
Sun 11:22:18 AM 24.9081 -79.0744 299° West 429 494 34,000  Level Miami Center
Sun 11:23:18 AM 24.9647 -79.1900 298° West 434 499 34,000  Level Miami Center
Sun 11:24:18 AM 25.0256 -79.3058 300° West 434 499 34,000  Level Miami Center
Sun 11:25:18 AM 25.0842 -79.4217 299° West 434 499 34,000  Level Miami Center
Sun 11:26:18 AM 25.1428 -79.5356 300° West 434 499 34,000  Level Miami Center
Sun 11:27:18 AM 25.2033 -79.6539 300° West 434 499 34,000  Level Miami Center
Sun 11:28:18 AM 25.2597 -79.7678 299° West 434 499 34,000  Level Miami Center
Sun 11:29:18 AM 25.3200 -79.8842 300° West 434 499 34,000 -50 Level Miami Center
Sun 11:30:18 AM 25.3781 -79.9981 299° West 434 499 33,900  Descending Miami Center
Sun 11:31:18 AM 25.4361 -80.1147 299° West 434 499 34,000 50 Climbing Miami Center
Sun 11:32:18 AM 25.4900 -80.2336 297° West 434 499 34,000 -50 Level Miami Center
Sun 11:33:18 AM 25.5372 -80.3522 294° West 434 499 33,900  Descending Miami Center
Sun 11:34:18 AM 25.5886 -80.4758 295° West 442 509 34,000 50 Climbing Miami Center
Sun 11:35:18 AM 25.6400 -80.5950 296° West 437 503 34,000  Level Miami Center
Sun 11:36:18 AM 25.6869 -80.7117 294° West 427 491 34,000  Level Miami Center
Sun 11:37:18 AM 25.7383 -80.8217 297° West 427 491 34,000  Level Miami Center
Sun 11:38:18 AM 25.7875 -80.9408 295° West 427 491 34,000  Level Miami Center
Sun 11:39:18 AM 25.8361 -81.0603 294° West 427 491 34,000  Level Miami Center
Sun 11:40:18 AM 25.8869 -81.1797 295° West 427 491 34,000  Level Miami Center
Sun 11:41:18 AM 25.9356 -81.3017 294° West 427 491 34,000  Level Miami Center
Sun 11:42:18 AM 25.9842 -81.4211 294° West 427 491 34,000 -50 Level Miami Center
Sun 11:43:18 AM 26.0347 -81.5411 295° West 427 491 33,900 -50 Descending Miami Center
Sun 11:44:18 AM 26.0831 -81.6608 294° West 427 491 33,900 50 Level Miami Center
Sun 11:45:18 AM 26.1333 -81.7808 295° West 427 491 34,000 50 Climbing Miami Center
Sun 11:46:18 AM 26.1833 -81.9008 295° West 427 491 34,000  Level Miami Center
Sun 11:47:18 AM 26.2272 -82.0253 291° West 419 482 34,000 -50 Level Miami Center
Sun 11:48:18 AM 26.2753 -82.1408 295° West 419 482 33,900  Descending Miami Center
Sun 11:49:18 AM 26.3231 -82.2611 294° West 419 482 34,000 50 Climbing Miami Center
Sun 11:50:18 AM 26.3708 -82.3792 294° West 419 482 34,000  Level Miami Center
Sun 11:51:18 AM 26.4181 -82.5019 293° West 419 482 34,000 -50 Level Miami Center
Sun 11:52:18 AM 26.4658 -82.6178 295° West 419 482 33,900  Descending Miami Center
Sun 11:53:18 AM 26.5111 -82.7361 293° West 419 482 34,000 50 Climbing Miami Center
Sun 11:54:18 AM 26.5586 -82.8544 294° West 419 482 34,000 -50 Level Miami Center
Sun 11:55:18 AM 26.6058 -82.9731 294° West 419 482 33,900  Descending Miami Center
Sun 11:56:18 AM 26.6528 -83.0914 294° West 419 482 34,000  Climbing Miami Center
Sun 11:57:18 AM 26.6978 -83.2100 293° West 419 482 33,900 -50 Descending Miami Center
Sun 11:58:18 AM 26.7489 -83.3314 295° West 419 482 33,900 50 Level Miami Center
Sun 11:59:18 AM 26.7936 -83.4500 293° West 419 482 34,000 50 Climbing Miami Center
Sun 12:00:18 PM 26.8403 -83.5689 294° West 419 482 34,000 -50 Level Miami Center
Sun 12:01:18 PM 26.8867 -83.6903 293° West 419 482 33,900  Descending Miami Center
Sun 12:02:18 PM 26.9331 -83.8117 293° West 419 482 34,000 50 Climbing Miami Center
Sun 12:03:18 PM 26.9797 -83.9286 294° West 419 482 34,000 -50 Level Miami Center
Sun 12:04:18 PM 27.0278 -84.0503 294° West 419 482 33,900  Descending Miami Center
Sun 12:05:18 PM 27.0700 -84.1669 292° West 419 482 34,000 50 Climbing Miami Center
Sun 12:06:18 PM 27.1119 -84.2839 292° West 419 482 34,000  Level Miami Center
Sun 12:07:18 PM 27.1619 -84.4036 295° West 419 482 34,000  Level Miami Center
Sun 12:09:11 PM 27.2453 -84.6286 293° West 414 476 34,000 -35 Level Jacksonville Center
Sun 12:10:11 PM 27.2897 -84.7483 293° West 414 476 33,900  Descending Jacksonville Center
Sun 12:11:11 PM 27.3336 -84.8681 292° West 414 476 34,000 50 Climbing Jacksonville Center
Sun 12:12:11 PM 27.3839 -84.9883 295° West 419 482 34,000  Level Jacksonville Center
Sun 12:13:11 PM 27.4258 -85.1131 291° West 419 482 34,000 -50 Level Jacksonville Center
Sun 12:14:11 PM 27.4717 -85.2308 294° West 419 482 33,900  Descending Jacksonville Center
Sun 12:15:11 PM 27.5175 -85.3442 295° West 408 470 34,000 50 Climbing Jacksonville Center
Sun 12:16:11 PM 27.5592 -85.4575 293° West 408 470 34,000 -50 Level Jacksonville Center
Sun 12:17:11 PM 27.6044 -85.5803 293° West 415 478 33,900  Descending Jacksonville Center
Sun 12:18:42 PM 27.6750 -85.7731 292° West 410 472 34,000 39 Climbing Houston Center
Sun 12:19:44 PM 27.7181 -85.8889 293° West 404 465 34,000  Level Houston Center
Sun 12:20:46 PM 27.7619 -86.0083 293° West 412 474 34,000  Level Houston Center
Sun 12:21:48 PM 27.8056 -86.1286 292° West 410 472 34,000  Level Houston Center
Sun 12:23:11 PM 27.8669 -86.3031 292° West 417 480 34,000  Level Jacksonville Center
Sun 12:24:11 PM 27.9117 -86.4244 293° West 417 480 34,000 -50 Level Jacksonville Center
Sun 12:25:11 PM 27.9542 -86.5433 292° West 409 471 33,900 -50 Descending Jacksonville Center
Sun 12:26:11 PM 27.9986 -86.6672 292° West 417 480 33,900 50 Level Jacksonville Center
Sun 12:27:11 PM 28.0392 -86.7814 292° West 412 474 34,000 50 Climbing Jacksonville Center
Sun 12:28:11 PM 28.0833 -86.9008 293° West 412 474 34,000 -50 Level Jacksonville Center
Sun 12:29:11 PM 28.1275 -87.0247 292° West 412 474 33,900 -50 Descending Jacksonville Center
Sun 12:30:11 PM 28.1656 -87.1347 291° West 404 465 33,900 51 Level Jacksonville Center
Sun 12:31:08 PM 28.2072 -87.2500 292° West 409 471 34,000 50 Climbing Houston Center
Sun 12:32:10 PM 28.2506 -87.3714 292° West 411 473 34,000  Level Houston Center
Sun 12:33:12 PM 28.2928 -87.4911 292° West 411 473 34,000  Level Houston Center
Sun 12:34:14 PM 28.3358 -87.6117 292° West 411 473 34,000  Level Houston Center
Sun 12:35:16 PM 28.3769 -87.7317 291° West 411 473 34,000  Level Houston Center
Sun 12:36:19 PM 28.4189 -87.8536 291° West 412 474 34,000 -48 Level Houston Center
Sun 12:37:21 PM 28.4692 -87.9986 292° West 412 474 33,900  Descending Houston Center
Sun 12:38:23 PM 28.5081 -88.1117 291° West 412 474 34,000 48 Climbing Houston Center
Sun 12:39:25 PM 28.5506 -88.2322 292° West 412 474 34,000 -48 Level Houston Center
Sun 12:40:27 PM 28.6000 -88.3792 291° West 412 474 33,900  Descending Houston Center
Sun 12:41:29 PM 28.6417 -88.4994 292° West 412 474 34,000 48 Climbing Houston Center
Sun 12:42:32 PM 28.6825 -88.6214 291° West 412 474 34,000  Level Houston Center
Sun 12:43:34 PM 28.7244 -88.7431 291° West 412 474 34,000 -48 Level Houston Center
Sun 12:44:36 PM 28.7653 -88.8647 291° West 412 474 33,900  Descending Houston Center
Sun 12:45:38 PM 28.8061 -88.9875 291° West 412 474 34,000 48 Climbing Houston Center
Sun 12:46:40 PM 28.8550 -89.1339 291° West 412 474 34,000  Level Houston Center
Sun 12:47:42 PM 28.8944 -89.2542 291° West 410 472 34,000  Level Houston Center
Sun 12:48:44 PM 28.9344 -89.3706 291° West 400 460 34,000 -192 Level Houston Center
Sun 12:49:47 PM 28.9739 -89.4908 291° West 400 460 33,600 -672 Descending Houston Center
Sun 12:50:49 PM 29.0144 -89.6128 291° West 404 465 32,600 -823 Descending Houston Center
Sun 12:51:51 PM 29.0556 -89.7389 290° West 417 480 31,900 -339 Descending Houston Center
Sun 12:52:53 PM 29.1031 -89.8842 291° West 412 474 31,900  Level Houston Center
Sun 12:53:55 PM 29.1436 -90.0092 290° West 415 478 31,900 48 Level Houston Center
Sun 12:54:57 PM 29.1800 -90.1344 288° West 415 478 32,000  Climbing Houston Center
Sun 12:55:59 PM 29.1953 -90.2650 278° West 418 481 31,900 -48 Descending Houston Center
Sun 12:57:01 PM 29.2125 -90.3931 279° West 411 473 31,900  Level Houston Center
Sun 12:58:04 PM 29.2281 -90.5200 278° West 408 470 31,900 -96 Level Houston Center
Sun 12:59:06 PM 29.2475 -90.6736 278° West 408 470 31,700 -871 Descending Houston Center
Sun 01:00:08 PM 29.2767 -90.8017 285° West 412 474 30,100 -871 Descending Houston Center
Sun 01:01:10 PM 29.3108 -90.9319 287° West 425 489 29,900 -48 Descending Houston Center
Sun 01:02:12 PM 29.3433 -91.0553 287° West 412 474 30,000 48 Climbing Houston Center
Sun 01:03:14 PM 29.3764 -91.1783 287° West 407 468 30,000  Level Houston Center
Sun 01:04:18 PM 29.4025 -91.3044 283° West 407 468 30,000  Level Houston Center
Sun 01:05:19 PM 29.4075 -91.4569 272° West 404 465 30,000  Level Houston Center
Sun 01:06:21 PM 29.4133 -91.5850 273° West 404 465 30,000  Level Houston Center
Sun 01:07:23 PM 29.4219 -91.7206 274° West 403 464 30,000  Level Houston Center
Sun 01:08:25 PM 29.4144 -91.8478 266° West 405 466 30,000  Level Houston Center
Sun 01:09:27 PM 29.3594 -91.9617 241° Southwest 407 468 30,000 -48 Level Houston Center
Sun 01:10:29 PM 29.3044 -92.0739 241° Southwest 406 467 29,900  Descending Houston Center
Sun 01:11:31 PM 29.2717 -92.1939 253° West 405 466 30,000  Climbing Houston Center
Sun 01:12:34 PM 29.3014 -92.3186 285° West 406 467 29,900  Descending Houston Center
Sun 01:13:36 PM 29.3358 -92.4681 285° West 405 466 30,000 48 Climbing Houston Center
Sun 01:14:38 PM 29.3664 -92.5936 286° West 406 467 30,000 -48 Level Houston Center
Sun 01:15:40 PM 29.3972 -92.7192 286° West 408 470 29,900 -484 Descending Houston Center
Sun 01:16:42 PM 29.4283 -92.8458 286° West 411 473 29,000 -919 Descending Houston Center
Sun 01:17:44 PM 29.4600 -92.9736 286° West 412 474 28,000 -968 Descending Houston Center
Sun 01:18:46 PM 29.4864 -93.1006 283° West 411 473 27,000 -1,056 Descending Houston Center
Sun 01:19:49 PM 29.4928 -93.2542 273° West 402 463 25,800 -1,056 Descending Houston Center
Sun 01:20:51 PM 29.4978 -93.3778 273° West 392 451 24,800 -968 Descending Houston Center
Sun 01:21:53 PM 29.5025 -93.5000 273° West 388 447 23,800 -968 Descending Houston Center
Sun 01:22:55 PM 29.5081 -93.6236 273° West 387 445 22,800 -968 Descending Houston Center
Sun 01:23:57 PM 29.5131 -93.7461 273° West 385 443 21,800 -968 Descending Houston Center
Sun 01:24:59 PM 29.5169 -93.8661 272° West 381 438 20,800 -1,258 Descending Houston Center
Sun 01:26:01 PM 29.5225 -94.0067 273° West 370 426 19,200 -1,800 Descending Houston Center
Sun 01:26:39 PM 29.5239 -94.0747 271° West 362 417 17,800 -2,286 Descending Houston Center
Sun 01:27:04 PM 29.5261 -94.1208 273° West 363 418 16,800 -2,239 Descending Houston Center
Sun 01:27:46 PM 29.5267 -94.2067 270° West 351 404 15,300 -2,032 Descending Houston Center
Sun 01:28:06 PM 29.5306 -94.2375 278° West 350 403 14,700 -1,967 Descending Houston Center
Sun 01:28:47 PM 29.5314 -94.3167 271° West 342 394 13,300 -1,548 Descending Houston Center
Sun 01:29:08 PM 29.5358 -94.3469 280° West 347 399 13,100 -590 Descending Houston Center
Sun 01:29:48 PM 29.5647 -94.4181 295° West 345 397 12,700 -677 Descending Houston Center
Sun 01:30:10 PM 29.5772 -94.4456 298° West 346 398 12,400 -1,161 Descending Houston Center
Sun 01:30:50 PM 29.6058 -94.5161 295° West 330 380 11,500 -1,161 Descending Houston Center
Sun 01:31:12 PM 29.6178 -94.5386 301° West 333 383 11,200 -1,180 Descending Houston Center
Sun 01:31:51 PM 29.6444 -94.6097 293° West 307 353 10,300 -1,065 Descending Houston Center
Sun 01:32:14 PM 29.6547 -94.6278 303° West 314 361 10,100 -1,475 Descending Houston Center
Sun 01:32:52 PM 29.6978 -94.6825 312° West 298 343 8,800 -1,905 Descending Houston Center
Sun 01:33:17 PM 29.7244 -94.7033 326° Northwest 302 348 8,100 -1,574 Descending Houston Center
Sun 01:33:53 PM 29.7642 -94.7389 322° Northwest 294 338 7,200 -1,355 Descending Houston Center
Sun 01:34:19 PM 29.7903 -94.7583 327° Northwest 298 343 6,700 -1,082 Descending Houston Center
Sun 01:34:54 PM 29.8303 -94.7933 323° Northwest 293 337 6,100 -581 Descending Houston Center
Sun 01:35:21 PM 29.8550 -94.8122 326° Northwest 293 337 6,100 -327 Level Houston Center
Sun 01:35:49 PM 29.8858 -94.8467 316° Northwest 284 327 5,800 -677 Descending Houston Center
Sun 01:36:23 PM 29.8986 -94.8808 293° West 289 333 5,400 -1,075 Descending Houston Center
Sun 01:36:56 PM 29.9156 -94.9369 289° West 265 305 4,600 -1,065 Descending Houston Center
Sun 01:37:25 PM 29.9239 -94.9597 293° West 272 313 4,300 -1,179 Descending Houston Center
Sun 01:37:52 PM 29.9369 -95.0089 287° West 252 290 3,500 -2,032 Descending Houston Center
Sun 01:38:27 PM 29.9517 -95.0531 291° West 263 303 2,200 -1,500 Descending Houston Center
Sun 01:38:52 PM 29.9633 -95.0878 291° West 271 312 2,000 -97 Descending Houston Center
Sun 01:39:29 PM 29.9758 -95.1303 289° West 263 303 2,100 97 Climbing Houston Center
Sun 01:39:54 PM 29.9783 -95.1606 275° West 180 207 2,100 -97 Level Houston Center
Sun 01:40:31 PM 29.9783 -95.1872 270° West 208 239 2,000 -492 Descending Houston Center
Sun 01:40:55 PM 29.9772 -95.2161 267° West 167 192 1,600 -762 Descending Houston Center
Sun 01:41:34 PM 29.9775 -95.2403 271° West 181 208 1,200 -885 Descending Houston Center
Sun 01:41:56 PM 29.9778 -95.2669 271° West 168 193 700 -677 Descending Houston Center
Sun 01:42:36 PM 29.9767 -95.2969 268° West 171 197 500 -300 Descending Houston Center
Sun 01:44:00 PM 29.9833 -95.3333 311° West  Level FlightAware Approximate

Login

Don't have an account? Register now (free) for customized features, flight alerts, and more!